Time;durP1;ratioP1;P1;durP2;ratioP2;P2;SDS_P1;SDS_P2;PMS_P1;PMS_P2;Temp;Humidity;BMP_temperature;BMP_pressure;BME280_temperature;BME280_humidity;BME280_pressure;Samples;Min_cycle;Max_cycle;Signal;HPM_P1;HPM_P2
2022/05/25 00:01:50;;;;;;;15.50;11.30;;;;;;;;;;4391766;80;20298;-80
2022/05/25 00:07:51;;;;;;;13.22;11.22;;;;;;;;;;4425298;80;28445;-81
2022/05/25 00:13:54;;;;;;;16.80;11.68;;;;;;;;;;4433000;80;28493;-80
2022/05/25 00:20:01;;;;;;;17.52;12.93;;;;;;;;;;4422039;80;28526;-80
2022/05/25 00:26:01;;;;;;;;;;;;;;;;;;4433122;80;28522;-81
2022/05/25 00:32:03;;;;;;;19.48;14.10;;;;;;;;;;4410236;79;20537;-81
2022/05/25 00:38:05;;;;;;;20.40;13.18;;;;;;;;;;4427033;80;28472;-81
2022/05/25 00:44:08;;;;;;;15.48;12.45;;;;;;;;;;4469384;78;28510;-82
2022/05/25 00:50:11;;;;;;;18.35;13.55;;;;;;;;;;4487954;78;28529;-82
2022/05/25 00:56:14;;;;;;;18.73;13.30;;;;;;;;;;4407309;79;28466;-82
2022/05/25 01:02:15;;;;;;;17.95;12.20;;;;;;;;;;4388289;80;28500;-83
2022/05/25 01:08:18;;;;;;;18.02;12.68;;;;;;;;;;4447309;79;28428;-84
2022/05/25 01:14:38;;;;;;;17.82;12.98;;;;;;;;;;4456177;78;28563;-83
2022/05/25 01:20:44;;;;;;;18.55;13.20;;;;;;;;;;4420830;78;28507;-83
2022/05/25 01:27:05;;;;;;;17.95;13.62;;;;;;;;;;4438570;79;44487;-83
2022/05/25 01:33:17;;;;;;;16.37;12.47;;;;;;;;;;4416498;80;28510;-84
2022/05/25 01:39:19;;;;;;;17.32;12.60;;;;;;;;;;4447911;78;28547;-84
2022/05/25 01:45:21;;;;;;;16.48;12.93;;;;;;;;;;4432982;79;28559;-84
2022/05/25 01:51:27;;;;;;;14.47;12.33;;;;;;;;;;4431040;79;28488;-84
2022/05/25 01:57:30;;;;;;;17.20;13.07;;;;;;;;;;4384210;79;28525;-84
2022/05/25 02:10:02;;;;;;;17.40;12.03;;;;;;;;;;4458708;78;28489;-82
2022/05/25 02:16:16;;;;;;;16.52;12.47;;;;;;;;;;4522523;78;28460;-83
2022/05/25 02:22:19;;;;;;;18.07;13.45;;;;;;;;;;4390604;81;28469;-82
2022/05/25 02:28:22;;;;;;;19.25;13.85;;;;;;;;;;4366646;80;28576;-82
2022/05/25 02:34:31;;;;;;;17.40;13.50;;;;;;;;;;4382733;81;28471;-82
2022/05/25 02:40:33;;;;;;;18.17;12.73;;;;;;;;;;4310630;80;28495;-83
2022/05/25 02:46:34;;;;;;;16.87;13.25;;;;;;;;;;4432202;80;28494;-83
2022/05/25 02:52:35;;;;;;;18.25;14.00;;;;;;;;;;4404891;80;28496;-83
2022/05/25 02:58:36;;;;;;;17.73;13.75;;;;;;;;;;4292980;80;28759;-83
2022/05/25 03:04:38;;;;;;;17.50;13.83;;;;;;;;;;4379048;80;28497;-82
2022/05/25 03:10:39;;;;;;;18.10;13.93;;;;;;;;;;4450717;79;28928;-83
2022/05/25 03:16:40;;;;;;;19.80;14.58;;;;;;;;;;4404845;80;28530;-83
2022/05/25 03:22:44;;;;;;;16.93;13.60;;;;;;;;;;4421434;79;28555;-82
2022/05/25 03:28:44;;;;;;;19.75;13.90;;;;;;;;;;4481837;79;28544;-80
2022/05/25 03:34:47;;;;;;;18.00;13.83;;;;;;;;;;4474510;79;28593;-79
2022/05/25 03:40:48;;;;;;;16.65;14.00;;;;;;;;;;4445068;77;28553;-80
2022/05/25 03:46:49;;;;;;;18.98;13.75;;;;;;;;;;4444178;78;28501;-80
2022/05/25 03:52:50;;;;;;;21.50;14.03;;;;;;;;;;4394851;79;28482;-79
2022/05/25 03:58:52;;;;;;;19.02;14.03;;;;;;;;;;4487833;78;28462;-80
2022/05/25 04:05:08;;;;;;;19.70;14.83;;;;;;;;;;4496957;79;28491;-84
2022/05/25 04:11:15;;;;;;;21.57;15.63;;;;;;;;;;4497372;79;28513;-82
2022/05/25 04:17:23;;;;;;;21.93;14.80;;;;;;;;;;4425962;78;28497;-83
2022/05/25 04:23:31;;;;;;;21.45;15.98;;;;;;;;;;4387058;81;28576;-82
2022/05/25 04:29:34;;;;;;;19.70;13.95;;;;;;;;;;4478752;78;28535;-82
2022/05/25 04:35:35;;;;;;;22.45;16.67;;;;;;;;;;4397264;79;28543;-83
2022/05/25 04:41:36;;;;;;;21.60;16.05;;;;;;;;;;4463232;78;28540;-82
2022/05/25 04:47:37;;;;;;;18.73;14.40;;;;;;;;;;4504098;78;28475;-83
2022/05/25 04:53:43;;;;;;;17.70;13.48;;;;;;;;;;4505050;78;28521;-78
2022/05/25 04:59:49;;;;;;;17.87;13.95;;;;;;;;;;4476672;78;28494;-76
2022/05/25 05:05:55;;;;;;;19.93;14.67;;;;;;;;;;4358845;80;28491;-76
2022/05/25 05:11:56;;;;;;;20.70;15.53;;;;;;;;;;4443167;79;28495;-75
2022/05/25 05:17:56;;;;;;;17.60;14.05;;;;;;;;;;4431919;79;28422;-79
2022/05/25 05:23:59;;;;;;;19.95;13.30;;;;;;;;;;4410892;79;28521;-80
2022/05/25 05:30:02;;;;;;;16.25;12.60;;;;;;;;;;4406723;80;28494;-80
2022/05/25 05:36:14;;;;;;;16.73;13.38;;;;;;;;;;4462072;79;28521;-79
2022/05/25 05:42:16;;;;;;;18.32;13.62;;;;;;;;;;4377695;79;28564;-80
2022/05/25 05:48:19;;;;;;;16.85;12.55;;;;;;;;;;4356109;80;28545;-81
2022/05/25 05:54:21;;;;;;;16.93;12.63;;;;;;;;;;4462140;78;28512;-78
2022/05/25 06:00:22;;;;;;;21.42;12.88;;;;;;;;;;4464563;78;28509;-79
2022/05/25 06:06:23;;;;;;;21.73;13.30;;;;;;;;;;4457808;80;28496;-79
2022/05/25 06:12:31;;;;;;;18.57;12.73;;;;;;;;;;4444536;80;28512;-78
2022/05/25 06:24:52;;;;;;;17.40;12.95;;;;;;;;;;4472739;78;28461;-79
2022/05/25 06:30:59;;;;;;;18.65;13.32;;;;;;;;;;4475461;78;28519;-80
2022/05/25 06:37:02;;;;;;;17.70;13.13;;;;;;;;;;4467248;78;28530;-79
2022/05/25 06:43:03;;;;;;;15.98;12.58;;;;;;;;;;4445958;80;28482;-83
2022/05/25 06:49:04;;;;;;;20.80;13.05;;;;;;;;;;4431439;79;28518;-78
2022/05/25 06:55:06;;;;;;;19.05;13.32;;;;;;;;;;4456208;80;28520;-79
2022/05/25 07:01:07;;;;;;;16.73;13.13;;;;;;;;;;4448607;80;28547;-78
2022/05/25 07:07:09;;;;;;;15.05;12.90;;;;;;;;;;4447737;78;28511;-78
2022/05/25 07:13:17;;;;;;;18.07;13.18;;;;;;;;;;4447966;79;28481;-79
2022/05/25 07:19:18;;;;;;;17.35;13.95;;;;;;;;;;4458031;79;28505;-79
2022/05/25 07:25:19;;;;;;;22.17;13.15;;;;;;;;;;4457240;78;28505;-77
2022/05/25 07:31:37;;;;;;;20.00;13.68;;;;;;;;;;4445699;80;28540;-79
2022/05/25 07:37:43;;;;;;;16.50;12.43;;;;;;;;;;4424018;78;28570;-80
2022/05/25 07:43:45;;;;;;;17.73;13.35;;;;;;;;;;4465128;78;28506;-79
2022/05/25 07:49:47;;;;;;;18.30;13.43;;;;;;;;;;4491270;77;28538;-77
2022/05/25 07:55:49;;;;;;;17.60;14.40;;;;;;;;;;4513523;77;28537;-78
2022/05/25 08:08:20;;;;;;;20.48;14.70;;;;;;;;;;4527010;77;28455;-77
2022/05/25 08:14:26;;;;;;;20.12;15.10;;;;;;;;;;4503090;78;28550;-77
2022/05/25 08:20:39;;;;;;;19.25;14.75;;;;;;;;;;4512875;77;28477;-80
2022/05/25 08:26:44;;;;;;;21.85;16.57;;;;;;;;;;4508851;77;28521;-78
2022/05/25 08:32:49;;;;;;;20.43;14.23;;;;;;;;;;4523012;77;28498;-77
2022/05/25 08:38:55;;;;;;;25.57;17.40;;;;;;;;;;4461208;77;28510;-78
2022/05/25 08:45:01;;;;;;;25.45;17.80;;;;;;;;;;4511432;77;28546;-76
2022/05/25 08:51:05;;;;;;;24.72;17.15;;;;;;;;;;4513703;77;28602;-76
2022/05/25 08:57:08;;;;;;;23.32;18.20;;;;;;;;;;4524101;78;28509;-75
2022/05/25 09:03:23;;;;;;;23.40;17.35;;;;;;;;;;4511852;77;28506;-78
2022/05/25 09:09:25;;;;;;;19.27;16.87;;;;;;;;;;4553350;77;28526;-79
2022/05/25 09:15:35;;;;;;;20.55;16.75;;;;;;;;;;4536776;77;28528;-77
2022/05/25 09:21:37;;;;;;;20.85;15.95;;;;;;;;;;4507642;78;28566;-80
2022/05/25 09:27:46;;;;;;;24.10;17.90;;;;;;;;;;4526476;77;28537;-78
2022/05/25 09:33:50;;;;;;;22.62;17.82;;;;;;;;;;4500604;77;28565;-77
2022/05/25 09:39:52;;;;;;;24.72;17.62;;;;;;;;;;4526403;78;28483;-79
2022/05/25 09:45:55;;;;;;;21.75;18.02;;;;;;;;;;4519505;77;28542;-87
2022/05/25 09:52:02;;;;;;;23.25;18.87;;;;;;;;;;4518247;77;28503;-84
2022/05/25 09:58:27;;;;;;;21.80;18.40;;;;;;;;;;4519565;77;28569;-81
2022/05/25 10:11:35;;;;;;;22.30;18.05;;;;;;;;;;4485992;77;28603;-83
2022/05/25 10:17:38;;;;;;;23.32;18.45;;;;;;;;;;4548456;77;28509;-82
2022/05/25 10:23:41;;;;;;;22.00;17.55;;;;;;;;;;4519361;78;28447;-85
2022/05/25 10:36:52;;;;;;;22.42;18.02;;;;;;;;;;4514084;77;28627;-83
2022/05/25 10:43:03;;;;;;;24.77;19.07;;;;;;;;;;4485613;77;28533;-81
2022/05/25 10:56:15;;;;;;;21.65;16.20;;;;;;;;;;4500018;77;28600;-81
2022/05/25 11:02:18;;;;;;;25.70;17.67;;;;;;;;;;4514695;77;28537;-80
2022/05/25 11:08:35;;;;;;;22.50;17.77;;;;;;;;;;4489941;77;28497;-80
2022/05/25 11:14:38;;;;;;;10.05;3.37;;;;;;;;;;4490486;78;28537;-81
2022/05/25 11:20:47;;;;;;;3.50;2.00;;;;;;;;;;4473222;77;28535;-80
2022/05/25 11:34:12;;;;;;;5.12;2.10;;;;;;;;;;4520514;78;28569;-78
2022/05/25 11:40:24;;;;;;;4.97;2.33;;;;;;;;;;4525321;77;28514;-81
2022/05/25 11:46:32;;;;;;;4.08;2.47;;;;;;;;;;4510008;77;28538;-81
2022/05/25 11:52:35;;;;;;;3.20;2.65;;;;;;;;;;4506992;78;28511;-81
2022/05/25 11:58:38;;;;;;;4.17;2.47;;;;;;;;;;4526060;77;28461;-80
2022/05/25 12:04:52;;;;;;;3.87;2.97;;;;;;;;;;4523552;78;28556;-80
2022/05/25 12:11:01;;;;;;;4.72;3.20;;;;;;;;;;4525430;77;28651;-80
2022/05/25 12:17:12;;;;;;;5.03;3.20;;;;;;;;;;4310985;80;28548;-81
2022/05/25 12:23:22;;;;;;;5.25;3.30;;;;;;;;;;4399622;79;29197;-79
2022/05/25 12:29:29;;;;;;;4.70;3.10;;;;;;;;;;4394532;79;28504;-80
2022/05/25 12:35:34;;;;;;;4.72;3.52;;;;;;;;;;4308460;79;28520;-80
2022/05/25 12:41:47;;;;;;;4.55;3.58;;;;;;;;;;4403840;80;28530;-79
2022/05/25 12:54:34;;;;;;;4.83;3.62;;;;;;;;;;4341674;80;28994;-78
2022/05/25 13:00:41;;;;;;;5.80;3.92;;;;;;;;;;4329877;80;28540;-79
2022/05/25 13:06:51;;;;;;;4.42;3.60;;;;;;;;;;4414585;79;28564;-79
2022/05/25 13:13:00;;;;;;;4.70;2.80;;;;;;;;;;4433611;79;28503;-80
2022/05/25 13:19:17;;;;;;;4.25;1.47;;;;;;;;;;4438365;80;28563;-81
2022/05/25 13:25:29;;;;;;;2.75;1.35;;;;;;;;;;4314747;81;28512;-78
2022/05/25 13:31:36;;;;;;;1.60;1.10;;;;;;;;;;4384933;79;28497;-79
2022/05/25 13:37:38;;;;;;;11.28;7.12;;;;;;;;;;4421619;80;28502;-79
2022/05/25 13:43:43;;;;;;;3.30;1.50;;;;;;;;;;4420353;77;28978;-79
2022/05/25 13:49:48;;;;;;;2.62;1.70;;;;;;;;;;4514631;78;28451;-78
2022/05/25 13:55:55;;;;;;;2.15;1.10;;;;;;;;;;4510704;77;28521;-78
2022/05/25 14:02:15;;;;;;;2.42;1.37;;;;;;;;;;4526505;77;28552;-80
2022/05/25 14:15:03;;;;;;;2.87;1.75;;;;;;;;;;4476293;78;28524;-76
2022/05/25 14:21:10;;;;;;;2.35;1.85;;;;;;;;;;4514751;77;28634;-76
2022/05/25 14:27:10;;;;;;;;;;;;;;;;;;4527492;77;28439;-77
2022/05/25 14:33:13;;;;;;;4.12;2.72;;;;;;;;;;4522770;78;20158;-75
2022/05/25 14:39:19;;;;;;;5.05;3.35;;;;;;;;;;4505024;77;28538;-76
2022/05/25 14:45:21;;;;;;;4.03;3.12;;;;;;;;;;4505149;77;28570;-75
2022/05/25 14:51:25;;;;;;;4.67;3.00;;;;;;;;;;4528102;77;28585;-80
2022/05/25 14:57:26;;;;;;;4.80;2.55;;;;;;;;;;4506028;77;28531;-82
2022/05/25 15:03:35;;;;;;;4.00;2.58;;;;;;;;;;4529038;77;28505;-79
2022/05/25 15:09:37;;;;;;;3.85;2.70;;;;;;;;;;4524831;77;28509;-80
2022/05/25 15:21:59;;;;;;;4.03;3.33;;;;;;;;;;4512108;78;28468;-81
2022/05/25 15:28:02;;;;;;;4.95;3.25;;;;;;;;;;4518533;77;28546;-78
2022/05/25 15:34:04;;;;;;;4.67;3.40;;;;;;;;;;4504104;77;28510;-78
2022/05/25 15:40:09;;;;;;;4.55;2.77;;;;;;;;;;4525078;77;28544;-79
2022/05/25 15:46:11;;;;;;;3.80;2.65;;;;;;;;;;4522720;77;28550;-78
2022/05/25 15:52:13;;;;;;;3.08;2.75;;;;;;;;;;4521425;77;28534;-78
2022/05/25 15:58:15;;;;;;;3.72;2.85;;;;;;;;;;4527771;77;28502;-78
2022/05/25 16:04:27;;;;;;;6.35;3.22;;;;;;;;;;4451926;78;28533;-77
2022/05/25 16:10:29;;;;;;;4.22;3.10;;;;;;;;;;4539925;77;28542;-77
2022/05/25 16:16:34;;;;;;;7.45;5.22;;;;;;;;;;4523819;78;28542;-78
2022/05/25 16:22:44;;;;;;;7.95;4.70;;;;;;;;;;4466736;77;28533;-80
2022/05/25 16:35:50;;;;;;;9.97;5.93;;;;;;;;;;4529875;77;28578;-82
2022/05/25 16:42:05;;;;;;;8.15;5.62;;;;;;;;;;4503803;78;28520;-81
2022/05/25 16:48:09;;;;;;;7.50;4.75;;;;;;;;;;4374792;80;28538;-81
2022/05/25 16:54:18;;;;;;;6.85;4.45;;;;;;;;;;4460851;79;28478;-81
2022/05/25 17:00:25;;;;;;;6.87;3.55;;;;;;;;;;4459468;79;28533;-79
2022/05/25 17:06:33;;;;;;;4.33;3.05;;;;;;;;;;4459414;79;28447;-80
2022/05/25 17:12:43;;;;;;;4.42;3.50;;;;;;;;;;4445517;80;28522;-84
2022/05/25 17:25:12;;;;;;;4.37;3.42;;;;;;;;;;4438542;79;28448;-79
2022/05/25 17:31:18;;;;;;;5.42;3.75;;;;;;;;;;4451930;80;28562;-80
2022/05/25 17:43:40;;;;;;;9.10;5.55;;;;;;;;;;4410321;79;28523;-82
2022/05/25 17:49:43;;;;;;;8.00;5.70;;;;;;;;;;4531967;77;28545;-82
2022/05/25 17:55:44;;;;;;;8.45;6.37;;;;;;;;;;4523868;77;28503;-82
2022/05/25 18:01:45;;;;;;;9.95;6.83;;;;;;;;;;4517868;77;28512;-82
2022/05/25 18:07:46;;;;;;;13.43;7.65;;;;;;;;;;4480465;77;28497;-81
2022/05/25 18:13:48;;;;;;;9.20;6.67;;;;;;;;;;4501741;77;28489;-82
2022/05/25 18:19:49;;;;;;;10.78;7.12;;;;;;;;;;4511083;77;28429;-84
2022/05/25 18:25:56;;;;;;;10.32;6.62;;;;;;;;;;4518065;77;28509;-82
2022/05/25 18:32:04;;;;;;;9.30;7.42;;;;;;;;;;4525866;77;28560;-83
2022/05/25 18:38:13;;;;;;;10.43;7.30;;;;;;;;;;4526970;77;28512;-81
2022/05/25 18:44:14;;;;;;;12.28;7.90;;;;;;;;;;4549013;77;28462;-83
2022/05/25 18:50:20;;;;;;;8.93;6.58;;;;;;;;;;4521778;77;28478;-82
2022/05/25 18:56:28;;;;;;;;;;;;;;;;;;4527847;77;28495;-83
2022/05/25 19:02:36;;;;;;;9.30;6.22;;;;;;;;;;4540673;77;20590;-83
2022/05/25 19:08:44;;;;;;;9.95;6.70;;;;;;;;;;4484143;77;28519;-80
2022/05/25 19:14:45;;;;;;;9.03;6.87;;;;;;;;;;4520462;77;28509;-81
2022/05/25 19:20:47;;;;;;;9.65;7.15;;;;;;;;;;4537300;77;28549;-81
2022/05/25 19:26:48;;;;;;;9.05;6.53;;;;;;;;;;4498111;77;28552;-80
2022/05/25 19:32:56;;;;;;;9.83;6.97;;;;;;;;;;4505402;77;28521;-85
2022/05/25 19:38:57;;;;;;;11.48;8.25;;;;;;;;;;4527329;77;28476;-81
2022/05/25 19:44:58;;;;;;;13.15;8.43;;;;;;;;;;4510003;77;28548;-82
2022/05/25 19:50:59;;;;;;;12.13;8.88;;;;;;;;;;4522192;77;28454;-81
2022/05/25 19:57:08;;;;;;;13.58;9.03;;;;;;;;;;4517316;77;28567;-82
2022/05/25 20:03:15;;;;;;;14.53;8.90;;;;;;;;;;4523840;77;28459;-78
2022/05/25 20:09:23;;;;;;;13.85;8.93;;;;;;;;;;4509333;77;28570;-79
2022/05/25 20:15:25;;;;;;;14.73;10.00;;;;;;;;;;4521417;77;28506;-79
2022/05/25 20:21:26;;;;;;;13.30;8.88;;;;;;;;;;4524608;77;28599;-80
2022/05/25 20:27:28;;;;;;;15.40;9.05;;;;;;;;;;4519161;77;28565;-79
2022/05/25 20:33:29;;;;;;;12.28;9.10;;;;;;;;;;4523313;77;28501;-80
2022/05/25 20:39:30;;;;;;;13.80;10.03;;;;;;;;;;4510742;77;28537;-80
2022/05/25 20:45:33;;;;;;;14.83;9.95;;;;;;;;;;4515767;77;28619;-80
2022/05/25 20:51:34;;;;;;;15.38;10.25;;;;;;;;;;4480944;78;28517;-80
2022/05/25 20:57:37;;;;;;;12.20;9.30;;;;;;;;;;4489908;78;28504;-80
2022/05/25 21:03:38;;;;;;;15.63;10.05;;;;;;;;;;4478443;77;28546;-81
2022/05/25 21:09:41;;;;;;;14.15;10.03;;;;;;;;;;4468392;78;28470;-81
2022/05/25 21:15:42;;;;;;;15.10;10.48;;;;;;;;;;4490142;77;28487;-80
2022/05/25 21:21:43;;;;;;;14.45;10.08;;;;;;;;;;4429191;79;28562;-81
2022/05/25 21:27:44;;;;;;;13.62;9.53;;;;;;;;;;4436605;79;28533;-81
2022/05/25 21:33:45;;;;;;;16.10;9.95;;;;;;;;;;4425054;79;28486;-81
2022/05/25 21:39:51;;;;;;;16.48;11.38;;;;;;;;;;4436853;79;28470;-80
2022/05/25 21:52:18;;;;;;;17.40;10.98;;;;;;;;;;4332597;80;28481;-80
2022/05/25 21:58:23;;;;;;;18.62;12.25;;;;;;;;;;4439238;80;28470;-81
2022/05/25 22:04:25;;;;;;;15.00;11.27;;;;;;;;;;4446645;78;28526;-79
2022/05/25 22:10:25;;;;;;;18.52;12.60;;;;;;;;;;4453726;78;28578;-79
2022/05/25 22:16:26;;;;;;;19.50;13.28;;;;;;;;;;4452686;78;28572;-78
2022/05/25 22:22:27;;;;;;;19.40;12.58;;;;;;;;;;4449519;78;28463;-78
2022/05/25 22:28:28;;;;;;;17.02;12.15;;;;;;;;;;4452543;78;28506;-80
2022/05/25 22:34:29;;;;;;;20.60;12.23;;;;;;;;;;4443884;78;28478;-79
2022/05/25 22:40:30;;;;;;;18.15;12.28;;;;;;;;;;4445072;78;28534;-79
2022/05/25 22:46:31;;;;;;;23.90;14.33;;;;;;;;;;4458215;78;28525;-79
2022/05/25 22:52:33;;;;;;;20.92;14.15;;;;;;;;;;4461295;77;28483;-79
2022/05/25 22:58:39;;;;;;;18.92;12.73;;;;;;;;;;4453914;78;28487;-79
2022/05/25 23:04:41;;;;;;;16.67;12.23;;;;;;;;;;4474904;78;28640;-80
2022/05/25 23:10:51;;;;;;;14.90;11.00;;;;;;;;;;4476070;77;28458;-80
2022/05/25 23:16:58;;;;;;;16.42;10.85;;;;;;;;;;4458926;78;28525;-79
2022/05/25 23:23:04;;;;;;;17.45;11.05;;;;;;;;;;4440979;78;28520;-79
2022/05/25 23:36:10;;;;;;;16.42;11.03;;;;;;;;;;4484733;78;20248;-78
2022/05/25 23:48:35;;;;;;;14.55;10.35;;;;;;;;;;4469367;78;28541;-77
2022/05/25 23:54:36;;;;;;;23.18;13.48;;;;;;;;;;4487264;78;28919;-77
